createdAt,value
2019-02-18T00:02:12.171Z,99011.50
2019-02-18T00:04:40.810Z,99011.06
2019-02-18T00:07:14.180Z,99011.87
2019-02-18T00:09:35.766Z,99014.41
2019-02-18T00:12:02.569Z,99013.49
2019-02-18T00:14:29.097Z,99005.63
2019-02-18T00:16:55.848Z,99008.23
2019-02-18T00:19:22.347Z,99004.72
2019-02-18T00:21:48.842Z,99010.36
2019-02-18T00:24:15.644Z,99005.10
2019-02-18T00:26:42.195Z,99007.70
2019-02-18T00:29:08.953Z,99002.01
2019-02-18T00:31:36.377Z,99004.13
2019-02-18T00:34:02.901Z,98995.93
2019-02-18T00:36:29.394Z,98999.36
2019-02-18T00:38:55.910Z,99000.61
2019-02-18T00:41:22.410Z,99001.05
2019-02-18T00:43:49.270Z,99002.78
2019-02-18T00:46:15.844Z,98999.26
2019-02-18T00:48:42.598Z,98998.55
2019-02-18T00:51:09.485Z,99003.77
2019-02-18T00:53:35.996Z,98998.59
2019-02-18T00:56:02.571Z,98998.59
2019-02-18T00:58:29.461Z,99008.09
2019-02-18T01:00:56.035Z,99005.48
2019-02-18T01:03:22.635Z,98996.80
2019-02-18T01:05:49.176Z,99000.61
2019-02-18T01:08:16.698Z,99006.19
2019-02-18T01:10:43.284Z,99002.59
2019-02-18T01:13:10.001Z,99007.66
2019-02-18T01:15:36.545Z,99005.86
2019-02-18T01:18:03.331Z,99004.94
2019-02-18T01:20:30.131Z,99006.59
2019-02-18T01:22:57.313Z,99009.19
2019-02-18T01:25:24.113Z,99003.92
2019-02-18T01:27:50.816Z,98998.64
2019-02-18T01:30:17.615Z,99001.22
2019-02-18T01:32:44.464Z,99007.19
2019-02-18T01:35:11.489Z,99006.19
2019-02-18T01:37:45.330Z,99009.52
2019-02-18T01:40:09.282Z,99004.99
2019-02-18T01:42:35.926Z,98999.22
2019-02-18T01:45:03.636Z,99000.02
2019-02-18T01:47:30.428Z,98995.29
2019-02-18T01:49:56.973Z,98988.86
2019-02-18T01:52:23.420Z,98991.24
2019-02-18T01:54:50.232Z,98985.38
2019-02-18T01:57:16.714Z,98984.23
2019-02-18T01:59:44.576Z,98978.75
2019-02-18T02:02:11.095Z,98977.16
2019-02-18T02:04:37.616Z,98981.06
2019-02-18T02:07:04.141Z,98973.27
2019-02-18T02:09:30.671Z,98969.80
2019-02-18T02:11:57.209Z,98964.14
2019-02-18T02:14:23.687Z,98967.13
2019-02-18T02:16:53.458Z,98963.28
2019-02-18T02:19:19.962Z,98955.53
2019-02-18T02:21:46.598Z,98962.54
2019-02-18T02:24:13.100Z,98955.55
2019-02-18T02:26:39.665Z,98959.80
2019-02-18T02:29:06.226Z,98959.69
2019-02-18T02:31:32.730Z,98953.08
2019-02-18T02:34:01.324Z,98946.97
2019-02-18T02:36:28.156Z,98949.77
2019-02-18T02:38:54.915Z,98945.73
2019-02-18T02:41:21.560Z,98948.52
2019-02-18T02:43:48.136Z,98953.11
2019-02-18T02:46:14.670Z,98947.66
2019-02-18T02:48:41.186Z,98952.44
2019-02-18T02:51:07.706Z,98950.58
2019-02-18T02:53:34.190Z,98946.98
2019-02-18T02:56:00.707Z,98942.01
2019-02-18T02:58:31.334Z,98945.30
2019-02-18T03:00:57.879Z,98943.45
2019-02-18T03:03:24.609Z,98943.98
2019-02-18T03:05:51.226Z,98928.04
2019-02-18T03:08:20.607Z,98931.98
2019-02-18T03:10:46.266Z,98930.88
2019-02-18T03:13:12.914Z,98928.36
2019-02-18T03:15:39.686Z,98936.50
2019-02-18T03:18:06.239Z,98928.69
2019-02-18T03:20:33.104Z,98928.06
2019-02-18T03:22:59.604Z,98926.33
2019-02-18T03:25:27.604Z,98920.86
2019-02-18T03:28:32.143Z,98919.17
2019-02-18T03:31:04.907Z,98923.63
2019-02-18T03:33:40.838Z,98925.81
2019-02-18T03:36:07.850Z,98924.36
2019-02-18T03:38:34.356Z,98919.91
2019-02-18T03:41:03.409Z,98922.84
2019-02-18T03:43:30.276Z,98921.47
2019-02-18T03:45:56.764Z,98924.59
2019-02-18T03:48:23.562Z,98923.70
2019-02-18T03:50:50.024Z,98924.70
2019-02-18T03:53:16.640Z,98928.17
2019-02-18T03:55:43.148Z,98925.13
2019-02-18T03:58:09.651Z,98934.92
2019-02-18T04:00:36.260Z,98935.88
2019-02-18T04:03:02.793Z,98929.50
2019-02-18T04:05:29.280Z,98939.63
2019-02-18T04:07:55.875Z,98940.14
2019-02-18T04:10:22.355Z,98948.89
2019-02-18T04:12:49.196Z,98948.48
2019-02-18T04:15:15.718Z,98941.55
2019-02-18T04:17:42.471Z,98947.69
2019-02-18T04:20:09.343Z,98952.33
2019-02-18T04:22:35.841Z,98948.88
2019-02-18T04:25:02.562Z,98946.27
2019-02-18T04:27:29.104Z,98953.52
2019-02-18T04:29:55.559Z,98943.95
2019-02-18T04:32:22.088Z,98938.17
2019-02-18T04:34:48.601Z,98936.17
2019-02-18T04:37:15.074Z,98940.73
2019-02-18T04:39:41.627Z,98935.89
2019-02-18T04:42:08.110Z,98930.28
2019-02-18T04:44:34.656Z,98931.95
2019-02-18T04:47:01.190Z,98936.41
2019-02-18T04:49:27.695Z,98935.84
2019-02-18T04:51:54.255Z,98928.91
2019-02-18T04:54:20.776Z,98933.27
2019-02-18T04:56:47.287Z,98925.87
2019-02-18T04:59:14.004Z,98920.03
2019-02-18T05:01:40.517Z,98921.52
2019-02-18T05:04:07.007Z,98925.48
2019-02-18T05:06:33.488Z,98923.98
2019-02-18T05:09:05.226Z,98931.78
2019-02-18T05:11:28.403Z,98934.44
2019-02-18T05:13:54.899Z,98940.08
2019-02-18T05:16:21.405Z,98940.53
2019-02-18T05:18:47.901Z,98937.12
2019-02-18T05:21:14.407Z,98939.17
2019-02-18T05:23:40.928Z,98934.15
2019-02-18T05:26:07.449Z,98938.27
2019-02-18T05:28:34.003Z,98935.58
2019-02-18T05:31:03.065Z,98933.34
2019-02-18T05:33:29.709Z,98942.05
2019-02-18T05:35:56.534Z,98934.27
2019-02-18T05:38:23.024Z,98943.88
2019-02-18T05:40:50.643Z,98936.32
2019-02-18T05:43:18.269Z,98938.33
2019-02-18T05:45:44.741Z,98941.23
2019-02-18T05:48:11.503Z,98928.94
2019-02-18T05:50:38.327Z,98926.47
2019-02-18T05:53:04.803Z,98929.16
2019-02-18T05:55:31.306Z,98930.75
2019-02-18T05:57:57.808Z,98943.11
2019-02-18T06:00:24.362Z,98940.66
2019-02-18T06:02:50.844Z,98944.24
2019-02-18T06:05:19.406Z,98950.98
2019-02-18T06:07:45.969Z,98944.62
2019-02-18T06:10:13.918Z,98941.41
2019-02-18T06:12:47.221Z,98946.48
2019-02-18T06:15:14.036Z,98947.80
2019-02-18T06:17:40.703Z,98947.34
2019-02-18T06:20:07.507Z,98941.66
2019-02-18T06:22:34.105Z,98938.72
2019-02-18T06:25:01.294Z,98941.05
2019-02-18T06:27:28.460Z,98942.09
2019-02-18T06:29:55.173Z,98940.36
2019-02-18T06:32:22.086Z,98936.21
2019-02-18T06:34:49.180Z,98931.22
2019-02-18T06:37:16.569Z,98935.89
2019-02-18T06:39:43.461Z,98939.17
2019-02-18T06:42:11.350Z,98947.63
2019-02-18T06:45:01.017Z,98938.59
2019-02-18T06:47:30.945Z,98943.53
2019-02-18T06:49:57.545Z,98948.81
2019-02-18T06:52:24.182Z,98947.40
2019-02-18T06:54:50.713Z,98948.81
2019-02-18T06:57:25.237Z,98951.85
2019-02-18T06:59:54.634Z,98950.13
2019-02-18T07:02:40.963Z,98953.46
2019-02-18T07:05:16.405Z,98960.45
2019-02-18T07:08:14.339Z,98954.48
2019-02-18T07:10:55.335Z,98949.08
2019-02-18T07:13:22.238Z,98959.17
2019-02-18T07:15:48.866Z,98955.34
2019-02-18T07:18:15.445Z,98957.96
2019-02-18T07:20:42.027Z,98959.97
2019-02-18T07:23:08.543Z,98967.08
2019-02-18T07:25:35.403Z,98964.34
2019-02-18T07:28:02.060Z,98966.80
2019-02-18T07:30:28.746Z,98970.59
2019-02-18T07:32:55.358Z,98965.92
2019-02-18T07:35:21.927Z,98964.23
2019-02-18T07:37:48.396Z,98966.09
2019-02-18T07:40:14.936Z,98965.75
2019-02-18T07:42:41.470Z,98965.89
2019-02-18T07:45:08.406Z,98962.66
2019-02-18T07:47:34.953Z,98962.78
2019-02-18T07:50:01.498Z,98959.05
2019-02-18T07:52:28.317Z,98962.14
2019-02-18T07:54:55.922Z,98953.16
2019-02-18T07:57:23.097Z,98953.38
2019-02-18T07:59:50.490Z,98957.92
2019-02-18T08:02:17.758Z,98959.88
2019-02-18T08:04:52.666Z,98956.61
2019-02-18T08:07:26.042Z,98958.07
2019-02-18T08:10:00.288Z,98957.86
2019-02-18T08:12:34.485Z,98955.48
2019-02-18T08:15:06.801Z,98945.80
2019-02-18T08:17:38.215Z,98947.34
2019-02-18T08:20:08.972Z,98944.06
2019-02-18T08:22:36.783Z,98939.42
2019-02-18T08:25:03.767Z,98939.84
2019-02-18T08:27:30.761Z,98934.50
2019-02-18T08:29:58.850Z,98929.05
2019-02-18T08:32:25.830Z,98922.59
2019-02-18T08:34:52.478Z,98917.78
2019-02-18T08:37:19.216Z,98913.20
2019-02-18T08:39:46.366Z,98922.53
2019-02-18T08:42:13.030Z,98918.14
2019-02-18T08:44:39.844Z,98914.52
2019-02-18T08:47:06.517Z,98909.45
2019-02-18T08:49:33.180Z,98903.25
2019-02-18T08:51:59.933Z,98904.54
2019-02-18T08:54:26.503Z,98905.68
2019-02-18T08:56:53.297Z,98905.15
2019-02-18T08:59:19.987Z,98897.66
2019-02-18T09:01:47.109Z,98898.47
2019-02-18T09:04:13.937Z,98899.42
2019-02-18T09:06:40.512Z,98898.47
2019-02-18T09:09:07.298Z,98903.05
2019-02-18T09:11:33.999Z,98908.93
2019-02-18T09:14:00.671Z,98903.34
2019-02-18T09:16:27.324Z,98898.76
2019-02-18T09:18:54.707Z,98901.19
2019-02-18T09:21:22.469Z,98899.96
2019-02-18T09:24:00.101Z,98899.29
2019-02-18T09:26:28.265Z,98896.74
2019-02-18T09:28:55.129Z,98901.67
2019-02-18T09:31:29.925Z,98894.98
2019-02-18T09:33:56.665Z,98889.97
2019-02-18T09:36:23.545Z,98891.88
2019-02-18T09:38:50.375Z,98892.56
2019-02-18T09:41:17.198Z,98888.62
2019-02-18T09:43:44.082Z,98881.61
2019-02-18T09:46:10.987Z,98882.33
2019-02-18T09:48:38.735Z,98881.41
2019-02-18T09:51:05.387Z,98876.28
2019-02-18T09:53:31.984Z,98877.14
2019-02-18T09:55:59.473Z,98874.95
2019-02-18T09:58:26.812Z,98873.87
2019-02-18T10:00:53.448Z,98869.42
2019-02-18T10:03:31.025Z,98873.55
2019-02-18T10:05:51.036Z,98869.09
2019-02-18T10:08:17.792Z,98868.27
2019-02-18T10:10:55.080Z,98871.68
2019-02-18T10:13:13.109Z,98870.45
2019-02-18T10:15:40.035Z,98871.91
2019-02-18T10:18:06.709Z,98870.26
2019-02-18T10:20:33.374Z,98861.84
2019-02-18T10:23:00.106Z,98868.97
2019-02-18T10:25:28.133Z,98865.29
2019-02-18T10:27:55.165Z,98862.09
2019-02-18T10:30:21.815Z,98862.89
2019-02-18T10:32:48.533Z,98864.06
2019-02-18T10:35:15.572Z,98851.34
2019-02-18T10:37:43.670Z,98856.39
2019-02-18T10:40:10.722Z,98847.14
2019-02-18T10:42:37.272Z,98847.35
2019-02-18T10:45:05.420Z,98848.47
2019-02-18T10:47:32.168Z,98841.52
2019-02-18T10:49:58.706Z,98845.86
2019-02-18T10:52:25.799Z,98845.86
2019-02-18T10:54:52.361Z,98851.66
2019-02-18T10:57:19.260Z,98842.94
2019-02-18T10:59:45.773Z,98842.58
2019-02-18T11:02:12.573Z,98841.67
2019-02-18T11:04:39.224Z,98838.62
2019-02-18T11:07:06.157Z,98838.63
2019-02-18T11:09:32.737Z,98838.63
2019-02-18T11:11:59.320Z,98827.10
2019-02-18T11:14:30.329Z,98839.30
2019-02-18T11:16:56.840Z,98835.09
2019-02-18T11:19:23.472Z,98828.20
2019-02-18T11:21:50.361Z,98821.65
2019-02-18T11:24:20.680Z,98807.22
2019-02-18T11:26:46.860Z,98807.22
2019-02-18T11:29:14.090Z,98808.50
2019-02-18T11:31:40.761Z,98807.38
2019-02-18T11:34:07.490Z,98799.87
2019-02-18T11:36:34.475Z,98801.19
2019-02-18T11:39:01.079Z,98801.08
2019-02-18T11:41:27.855Z,98793.45
2019-02-18T11:43:54.896Z,98794.39
2019-02-18T11:46:21.491Z,98791.23
2019-02-18T11:48:48.312Z,98781.93
2019-02-18T11:51:15.376Z,98787.33
2019-02-18T11:53:42.048Z,98777.23
2019-02-18T11:56:09.557Z,98774.94
2019-02-18T11:58:36.380Z,98776.06
2019-02-18T12:01:03.262Z,98767.30
2019-02-18T12:03:29.872Z,98757.25
2019-02-18T12:05:56.420Z,98752.09
2019-02-18T12:08:23.044Z,98757.45
2019-02-18T12:10:49.816Z,98755.83
2019-02-18T12:13:16.322Z,98744.16
2019-02-18T12:15:42.879Z,98749.02
2019-02-18T12:18:09.362Z,98732.36
2019-02-18T12:20:36.661Z,98726.94
2019-02-18T12:23:03.518Z,98728.73
2019-02-18T12:25:30.485Z,98725.88
2019-02-18T12:27:57.420Z,98730.56
2019-02-18T12:30:24.222Z,98724.92
2019-02-18T12:32:50.886Z,98726.56
2019-02-18T12:35:17.799Z,98717.61
2019-02-18T12:37:54.653Z,98708.30
2019-02-18T12:40:12.890Z,98708.41
2019-02-18T12:42:41.946Z,98703.16
2019-02-18T12:45:08.485Z,98696.64
2019-02-18T12:47:35.130Z,98686.97
2019-02-18T12:50:01.719Z,98686.27
2019-02-18T12:52:28.507Z,98674.95
2019-02-18T12:54:55.086Z,98676.53
2019-02-18T12:57:21.755Z,98671.75
2019-02-18T12:59:48.469Z,98667.94
2019-02-18T13:02:15.428Z,98669.92
2019-02-18T13:04:42.291Z,98667.23
2019-02-18T13:07:08.833Z,98661.69
2019-02-18T13:09:35.312Z,98661.00
2019-02-18T13:12:01.929Z,98651.28
2019-02-18T13:14:28.469Z,98648.69
2019-02-18T13:16:55.002Z,98640.39
2019-02-18T13:19:21.939Z,98640.66
2019-02-18T13:21:48.507Z,98633.77
2019-02-18T13:24:15.303Z,98625.16
2019-02-18T13:26:41.871Z,98622.37
2019-02-18T13:29:08.396Z,98620.11
2019-02-18T13:31:35.041Z,98616.92
2019-02-18T13:34:01.590Z,98626.31
2019-02-18T13:36:28.426Z,98620.19
2019-02-18T13:38:55.000Z,98622.09
2019-02-18T13:41:21.542Z,98619.80
2019-02-18T13:43:48.411Z,98614.09
2019-02-18T13:46:14.982Z,98621.13
2019-02-18T13:48:41.521Z,98619.48
2019-02-18T13:51:08.062Z,98613.86
2019-02-18T13:53:34.614Z,98610.59
2019-02-18T13:56:01.315Z,98608.46
2019-02-18T13:58:28.176Z,98606.14
2019-02-18T14:00:54.791Z,98601.47
2019-02-18T14:03:21.739Z,98611.83
2019-02-18T14:05:48.475Z,98603.98
2019-02-18T14:08:15.032Z,98608.10
2019-02-18T14:10:41.583Z,98610.55
2019-02-18T14:13:08.157Z,98611.57
2019-02-18T14:15:34.804Z,98607.73
2019-02-18T14:18:01.366Z,98604.55
2019-02-18T14:20:27.871Z,98606.66
2019-02-18T14:22:54.843Z,98605.61
2019-02-18T14:25:21.389Z,98602.49
2019-02-18T14:27:47.996Z,98601.36
2019-02-18T14:30:16.254Z,98605.27
2019-02-18T14:32:46.802Z,98607.25
2019-02-18T14:35:14.754Z,98600.94
2019-02-18T14:37:41.386Z,98601.00
2019-02-18T14:40:09.740Z,98602.77
2019-02-18T14:42:36.886Z,98602.07
2019-02-18T14:45:03.567Z,98595.31
2019-02-18T14:47:30.292Z,98598.94
2019-02-18T14:49:57.232Z,98595.96
2019-02-18T14:52:24.274Z,98595.91
2019-02-18T14:54:51.307Z,98597.48
2019-02-18T14:57:18.696Z,98593.95
2019-02-18T14:59:46.288Z,98593.38
2019-02-18T15:02:16.275Z,98594.50
2019-02-18T15:04:52.164Z,98592.51
2019-02-18T15:07:24.642Z,98589.55
2019-02-18T15:09:51.599Z,98595.17
2019-02-18T15:12:18.549Z,98591.13
2019-02-18T15:14:45.035Z,98589.16
2019-02-18T15:17:11.989Z,98583.16
2019-02-18T15:19:38.701Z,98583.02
2019-02-18T15:22:05.246Z,98581.67
2019-02-18T15:24:31.882Z,98574.08
2019-02-18T15:26:58.599Z,98580.51
2019-02-18T15:29:30.034Z,98577.55
2019-02-18T15:31:56.955Z,98573.86
2019-02-18T15:34:28.555Z,98580.76
2019-02-18T15:36:55.285Z,98575.27
2019-02-18T15:39:22.189Z,98580.44
2019-02-18T15:41:48.757Z,98579.41
2019-02-18T15:44:15.322Z,98574.83
2019-02-18T15:46:42.310Z,98578.95
2019-02-18T15:49:08.942Z,98573.98
2019-02-18T15:51:35.599Z,98570.13
2019-02-18T15:54:02.086Z,98576.69
2019-02-18T15:56:28.705Z,98571.75
2019-02-18T15:58:55.228Z,98575.11
2019-02-18T16:01:22.098Z,98572.78
2019-02-18T16:03:48.857Z,98565.56
2019-02-18T16:06:15.612Z,98564.92
2019-02-18T16:08:42.129Z,98566.37
2019-02-18T16:11:08.983Z,98564.61
2019-02-18T16:13:37.925Z,98561.94
2019-02-18T16:16:04.608Z,98555.80
2019-02-18T16:18:31.289Z,98558.58
2019-02-18T16:20:58.092Z,98558.58
2019-02-18T16:23:25.062Z,98562.40
2019-02-18T16:25:51.688Z,98559.75
2019-02-18T16:28:18.556Z,98567.13
2019-02-18T16:30:45.023Z,98570.52
2019-02-18T16:33:11.602Z,98567.37
2019-02-18T16:35:38.792Z,98566.69
2019-02-18T16:38:05.841Z,98568.66
2019-02-18T16:40:32.885Z,98572.36
2019-02-18T16:42:59.690Z,98575.05
2019-02-18T16:45:27.081Z,98571.13
2019-02-18T16:47:54.032Z,98572.47
2019-02-18T16:50:29.866Z,98570.67
2019-02-18T16:52:56.700Z,98566.22
2019-02-18T16:55:33.111Z,98565.39
2019-02-18T16:58:08.668Z,98570.84
2019-02-18T17:00:38.713Z,98571.22
2019-02-18T17:03:06.901Z,98570.17
2019-02-18T17:05:37.370Z,98565.41
2019-02-18T17:08:03.873Z,98566.14
2019-02-18T17:10:39.402Z,98571.05
2019-02-18T17:13:08.461Z,98566.14
2019-02-18T17:15:44.751Z,98570.29
2019-02-18T17:18:24.579Z,98567.59
2019-02-18T17:21:01.685Z,98565.19
2019-02-18T17:23:28.201Z,98567.16
2019-02-18T17:25:54.816Z,98569.02
2019-02-18T17:28:21.296Z,98566.98
2019-02-18T17:30:47.777Z,98564.06
2019-02-18T17:33:14.290Z,98563.64
2019-02-18T17:35:41.152Z,98562.36
2019-02-18T17:38:08.042Z,98557.20
2019-02-18T17:40:34.523Z,98559.10
2019-02-18T17:43:01.089Z,98564.38
2019-02-18T17:45:27.589Z,98561.36
2019-02-18T17:47:54.114Z,98556.12
2019-02-18T17:50:20.885Z,98559.21
2019-02-18T17:52:47.429Z,98555.31
2019-02-18T17:55:14.318Z,98557.43
2019-02-18T17:57:41.150Z,98554.45
2019-02-18T18:00:14.296Z,98555.76
2019-02-18T18:02:40.966Z,98553.03
2019-02-18T18:05:10.384Z,98549.07
2019-02-18T18:07:47.410Z,98556.52
2019-02-18T18:10:14.426Z,98558.32
2019-02-18T18:12:40.953Z,98553.55
2019-02-18T18:15:08.510Z,98554.53
2019-02-18T18:17:35.077Z,98556.39
2019-02-18T18:20:01.921Z,98554.80
2019-02-18T18:22:28.507Z,98557.56
2019-02-18T18:24:55.036Z,98555.04
2019-02-18T18:27:21.572Z,98553.84
2019-02-18T18:29:50.144Z,98550.37
2019-02-18T18:32:16.654Z,98550.02
2019-02-18T18:34:43.189Z,98542.21
2019-02-18T18:37:09.774Z,98542.61
2019-02-18T18:39:38.603Z,98535.20
2019-02-18T18:42:05.199Z,98535.62
2019-02-18T18:44:31.877Z,98536.04
2019-02-18T18:47:02.003Z,98530.34
2019-02-18T18:49:28.601Z,98528.23
2019-02-18T18:51:55.706Z,98526.52
2019-02-18T18:54:22.278Z,98524.68
2019-02-18T18:56:51.799Z,98519.42
2019-02-18T18:59:21.339Z,98514.55
2019-02-18T19:01:49.157Z,98518.91
2019-02-18T19:04:16.028Z,98506.20
2019-02-18T19:06:42.667Z,98511.44
2019-02-18T19:09:09.528Z,98514.01
2019-02-18T19:11:36.085Z,98516.16
2019-02-18T19:14:02.666Z,98517.70
2019-02-18T19:16:29.373Z,98514.50
2019-02-18T19:18:55.914Z,98524.88
2019-02-18T19:21:22.729Z,98515.40
2019-02-18T19:23:49.391Z,98521.01
2019-02-18T19:26:16.130Z,98511.12
2019-02-18T19:28:44.472Z,98511.00
2019-02-18T19:31:11.310Z,98506.77
2019-02-18T19:33:38.280Z,98501.02
2019-02-18T19:36:05.042Z,98499.80
2019-02-18T19:38:32.243Z,98506.23
2019-02-18T19:40:59.251Z,98504.03
2019-02-18T19:43:25.744Z,98502.19
2019-02-18T19:45:52.347Z,98502.36
2019-02-18T19:48:18.885Z,98497.16
2019-02-18T19:50:45.548Z,98492.69
2019-02-18T19:53:12.077Z,98486.50
2019-02-18T19:55:39.385Z,98473.72
2019-02-18T19:58:06.115Z,98478.33
2019-02-18T20:00:32.844Z,98480.13
2019-02-18T20:03:00.799Z,98475.93
2019-02-18T20:05:36.368Z,98471.52
2019-02-18T20:08:09.507Z,98483.45
2019-02-18T20:10:37.149Z,98490.69
2019-02-18T20:13:04.239Z,98496.09
2019-02-18T20:15:31.059Z,98498.27
2019-02-18T20:17:58.940Z,98490.02
2019-02-18T20:20:25.527Z,98490.91
2019-02-18T20:22:52.259Z,98489.98
2019-02-18T20:25:20.602Z,98483.47
2019-02-18T20:27:48.103Z,98485.32
2019-02-18T20:30:15.185Z,98481.22
2019-02-18T20:32:41.737Z,98488.38
2019-02-18T20:35:08.794Z,98485.63
2019-02-18T20:37:35.676Z,98480.48
2019-02-18T20:40:03.956Z,98478.73
2019-02-18T20:42:33.611Z,98478.09
2019-02-18T20:45:00.238Z,98468.98
2019-02-18T20:47:26.746Z,98471.10
2019-02-18T20:49:53.585Z,98482.47
2019-02-18T20:52:20.145Z,98477.33
2019-02-18T20:54:50.070Z,98472.98
2019-02-18T20:57:18.933Z,98480.47
2019-02-18T20:59:49.212Z,98479.74
2019-02-18T21:02:16.183Z,98477.73
2019-02-18T21:04:52.239Z,98480.73
2019-02-18T21:07:20.262Z,98479.43
2019-02-18T21:09:49.019Z,98482.48
2019-02-18T21:12:19.858Z,98478.53
2019-02-18T21:14:44.973Z,98478.64
2019-02-18T21:17:11.502Z,98482.67
2019-02-18T21:19:40.794Z,98485.80
2019-02-18T21:22:07.444Z,98482.89
2019-02-18T21:24:34.176Z,98476.81
2019-02-18T21:27:01.225Z,98475.98
2019-02-18T21:29:28.473Z,98478.05
2019-02-18T21:31:56.497Z,98476.63
2019-02-18T21:34:23.018Z,98479.11
2019-02-18T21:36:51.476Z,98473.38
2019-02-18T21:39:26.376Z,98478.53
2019-02-18T21:41:52.885Z,98475.92
2019-02-18T21:44:24.915Z,98480.99
2019-02-18T21:46:47.858Z,98475.59
2019-02-18T21:49:14.414Z,98477.12
2019-02-18T21:51:40.953Z,98470.23
2019-02-18T21:54:07.616Z,98471.39
2019-02-18T21:56:34.140Z,98466.24
2019-02-18T21:59:00.710Z,98474.73
2019-02-18T22:01:27.260Z,98469.56
2019-02-18T22:03:53.735Z,98481.47
2019-02-18T22:06:20.649Z,98478.07
2019-02-18T22:08:47.484Z,98478.71
2019-02-18T22:11:14.012Z,98482.96
2019-02-18T22:13:40.637Z,98481.07
2019-02-18T22:16:07.172Z,98481.68
2019-02-18T22:18:33.650Z,98483.64
2019-02-18T22:21:00.272Z,98482.79
2019-02-18T22:23:26.807Z,98482.77
2019-02-18T22:25:53.284Z,98482.03
2019-02-18T22:28:20.316Z,98483.91
2019-02-18T22:30:47.162Z,98480.05
2019-02-18T22:33:13.711Z,98476.16
2019-02-18T22:35:40.231Z,98483.23
2019-02-18T22:38:06.754Z,98479.84
2019-02-18T22:40:33.239Z,98473.45
2019-02-18T22:42:59.737Z,98470.03
2019-02-18T22:45:26.260Z,98473.12
2019-02-18T22:47:53.366Z,98478.45
2019-02-18T22:50:19.809Z,98469.89
2019-02-18T22:52:46.294Z,98475.68
2019-02-18T22:55:13.175Z,98469.28
2019-02-18T22:57:39.699Z,98474.53
2019-02-18T23:00:13.769Z,98473.72
2019-02-18T23:02:42.890Z,98471.58
2019-02-18T23:05:09.864Z,98474.60
2019-02-18T23:07:36.535Z,98465.95
2019-02-18T23:10:03.442Z,98475.41
2019-02-18T23:12:29.933Z,98474.08
2019-02-18T23:14:57.223Z,98470.10
2019-02-18T23:17:29.691Z,98474.70
2019-02-18T23:19:56.233Z,98472.95
2019-02-18T23:22:22.753Z,98468.05
2019-02-18T23:24:49.618Z,98477.21
2019-02-18T23:27:16.111Z,98472.77
2019-02-18T23:29:42.895Z,98471.89
2019-02-18T23:32:09.362Z,98462.69
2019-02-18T23:34:35.900Z,98465.81
2019-02-18T23:37:02.393Z,98471.97
2019-02-18T23:39:28.860Z,98468.58
2019-02-18T23:41:55.406Z,98468.92
2019-02-18T23:44:21.923Z,98464.67
2019-02-18T23:46:48.665Z,98460.80
2019-02-18T23:49:15.200Z,98461.26
2019-02-18T23:51:41.780Z,98461.68
2019-02-18T23:54:08.287Z,98464.06
2019-02-18T23:56:34.784Z,98457.17
2019-02-18T23:59:01.512Z,98467.61
